sensor_id;sensor_type;location;lat;lon;timestamp;P1;durP1;ratioP1;P2;durP2;ratioP2
37389;SDS011;39679;49.000;8.390;2022-10-16T00:04:55;1.98;;;0.80;;
37389;SDS011;39679;49.000;8.390;2022-10-16T00:09:56;1.38;;;0.80;;
37389;SDS011;39679;49.000;8.390;2022-10-16T00:14:56;1.77;;;1.00;;
37389;SDS011;39679;49.000;8.390;2022-10-16T00:19:56;3.72;;;0.82;;
37389;SDS011;39679;49.000;8.390;2022-10-16T00:24:57;2.03;;;1.43;;
37389;SDS011;39679;49.000;8.390;2022-10-16T00:29:57;0.93;;;0.93;;
37389;SDS011;39679;49.000;8.390;2022-10-16T00:34:57;1.58;;;0.73;;
37389;SDS011;39679;49.000;8.390;2022-10-16T00:39:58;0.98;;;0.85;;
37389;SDS011;39679;49.000;8.390;2022-10-16T00:44:58;1.67;;;0.95;;
37389;SDS011;39679;49.000;8.390;2022-10-16T00:50:18;2.28;;;0.90;;
37389;SDS011;39679;49.000;8.390;2022-10-16T00:55:31;1.40;;;0.82;;
37389;SDS011;39679;49.000;8.390;2022-10-16T01:00:31;0.68;;;0.68;;
37389;SDS011;39679;49.000;8.390;2022-10-16T01:05:39;1.45;;;0.63;;
37389;SDS011;39679;49.000;8.390;2022-10-16T01:11:32;1.05;;;0.80;;
37389;SDS011;39679;49.000;8.390;2022-10-16T01:21:41;1.60;;;0.77;;
37389;SDS011;39679;49.000;8.390;2022-10-16T01:27:03;0.77;;;0.63;;
37389;SDS011;39679;49.000;8.390;2022-10-16T01:32:10;1.05;;;0.73;;
37389;SDS011;39679;49.000;8.390;2022-10-16T01:37:25;1.75;;;0.70;;
37389;SDS011;39679;49.000;8.390;2022-10-16T01:42:37;0.88;;;0.80;;
37389;SDS011;39679;49.000;8.390;2022-10-16T01:47:42;4.63;;;0.80;;
37389;SDS011;39679;49.000;8.390;2022-10-16T01:52:45;3.67;;;0.88;;
37389;SDS011;39679;49.000;8.390;2022-10-16T01:57:49;0.90;;;0.70;;
37389;SDS011;39679;49.000;8.390;2022-10-16T02:02:52;2.72;;;1.10;;
37389;SDS011;39679;49.000;8.390;2022-10-16T02:07:53;0.68;;;0.57;;
37389;SDS011;39679;49.000;8.390;2022-10-16T02:12:56;0.60;;;0.60;;
37389;SDS011;39679;49.000;8.390;2022-10-16T02:18:01;0.85;;;0.80;;
37389;SDS011;39679;49.000;8.390;2022-10-16T02:33:09;0.93;;;0.50;;
37389;SDS011;39679;49.000;8.390;2022-10-16T02:38:12;1.23;;;0.75;;
37389;SDS011;39679;49.000;8.390;2022-10-16T02:43:15;0.95;;;0.70;;
37389;SDS011;39679;49.000;8.390;2022-10-16T02:48:16;1.17;;;0.65;;
37389;SDS011;39679;49.000;8.390;2022-10-16T02:53:16;1.55;;;0.70;;
37389;SDS011;39679;49.000;8.390;2022-10-16T02:58:17;0.65;;;0.60;;
37389;SDS011;39679;49.000;8.390;2022-10-16T03:03:17;0.70;;;0.70;;
37389;SDS011;39679;49.000;8.390;2022-10-16T03:08:17;0.90;;;0.60;;
37389;SDS011;39679;49.000;8.390;2022-10-16T03:13:18;0.75;;;0.63;;
37389;SDS011;39679;49.000;8.390;2022-10-16T03:18:18;1.85;;;0.68;;
37389;SDS011;39679;49.000;8.390;2022-10-16T03:23:18;0.80;;;0.68;;
37389;SDS011;39679;49.000;8.390;2022-10-16T03:28:19;0.50;;;0.50;;
37389;SDS011;39679;49.000;8.390;2022-10-16T03:33:19;0.57;;;0.57;;
37389;SDS011;39679;49.000;8.390;2022-10-16T03:38:20;0.90;;;0.45;;
37389;SDS011;39679;49.000;8.390;2022-10-16T03:43:20;1.33;;;0.60;;
37389;SDS011;39679;49.000;8.390;2022-10-16T03:48:21;0.70;;;0.50;;
37389;SDS011;39679;49.000;8.390;2022-10-16T03:53:21;0.77;;;0.68;;
37389;SDS011;39679;49.000;8.390;2022-10-16T03:58:22;1.13;;;0.57;;
37389;SDS011;39679;49.000;8.390;2022-10-16T04:03:22;1.02;;;0.85;;
37389;SDS011;39679;49.000;8.390;2022-10-16T04:08:22;0.50;;;0.50;;
37389;SDS011;39679;49.000;8.390;2022-10-16T04:13:23;1.48;;;0.55;;
37389;SDS011;39679;49.000;8.390;2022-10-16T04:18:23;0.40;;;0.40;;
37389;SDS011;39679;49.000;8.390;2022-10-16T04:23:23;1.83;;;0.70;;
37389;SDS011;39679;49.000;8.390;2022-10-16T04:28:24;0.60;;;0.60;;
37389;SDS011;39679;49.000;8.390;2022-10-16T04:33:24;0.47;;;0.47;;
37389;SDS011;39679;49.000;8.390;2022-10-16T04:38:25;0.95;;;0.70;;
37389;SDS011;39679;49.000;8.390;2022-10-16T04:43:25;0.82;;;0.63;;
37389;SDS011;39679;49.000;8.390;2022-10-16T04:48:26;0.63;;;0.60;;
37389;SDS011;39679;49.000;8.390;2022-10-16T04:53:26;0.52;;;0.52;;
37389;SDS011;39679;49.000;8.390;2022-10-16T04:58:26;1.63;;;0.60;;
37389;SDS011;39679;49.000;8.390;2022-10-16T05:03:27;0.50;;;0.50;;
37389;SDS011;39679;49.000;8.390;2022-10-16T05:08:27;0.68;;;0.50;;
37389;SDS011;39679;49.000;8.390;2022-10-16T05:13:27;0.68;;;0.68;;
37389;SDS011;39679;49.000;8.390;2022-10-16T05:18:28;2.55;;;0.57;;
37389;SDS011;39679;49.000;8.390;2022-10-16T05:23:28;0.85;;;0.52;;
37389;SDS011;39679;49.000;8.390;2022-10-16T05:28:29;0.65;;;0.65;;
37389;SDS011;39679;49.000;8.390;2022-10-16T05:33:30;2.47;;;0.65;;
37389;SDS011;39679;49.000;8.390;2022-10-16T05:38:30;0.50;;;0.50;;
37389;SDS011;39679;49.000;8.390;2022-10-16T05:43:31;0.60;;;0.60;;
37389;SDS011;39679;49.000;8.390;2022-10-16T05:48:32;0.73;;;0.65;;
37389;SDS011;39679;49.000;8.390;2022-10-16T05:53:33;0.55;;;0.55;;
37389;SDS011;39679;49.000;8.390;2022-10-16T05:58:35;1.10;;;0.60;;
37389;SDS011;39679;49.000;8.390;2022-10-16T06:03:37;1.33;;;0.70;;
37389;SDS011;39679;49.000;8.390;2022-10-16T06:08:37;0.60;;;0.60;;
37389;SDS011;39679;49.000;8.390;2022-10-16T06:13:38;0.82;;;0.52;;
37389;SDS011;39679;49.000;8.390;2022-10-16T06:18:38;2.60;;;0.65;;
37389;SDS011;39679;49.000;8.390;2022-10-16T06:23:39;0.40;;;0.40;;
37389;SDS011;39679;49.000;8.390;2022-10-16T06:28:39;1.08;;;0.63;;
37389;SDS011;39679;49.000;8.390;2022-10-16T06:33:40;0.82;;;0.50;;
37389;SDS011;39679;49.000;8.390;2022-10-16T06:38:41;0.45;;;0.45;;
37389;SDS011;39679;49.000;8.390;2022-10-16T06:43:42;0.50;;;0.50;;
37389;SDS011;39679;49.000;8.390;2022-10-16T06:48:42;0.60;;;0.60;;
37389;SDS011;39679;49.000;8.390;2022-10-16T06:53:45;0.95;;;0.65;;
37389;SDS011;39679;49.000;8.390;2022-10-16T06:58:47;0.60;;;0.60;;
37389;SDS011;39679;49.000;8.390;2022-10-16T07:03:47;0.55;;;0.55;;
37389;SDS011;39679;49.000;8.390;2022-10-16T07:08:48;0.43;;;0.43;;
37389;SDS011;39679;49.000;8.390;2022-10-16T07:13:50;0.80;;;0.30;;
37389;SDS011;39679;49.000;8.390;2022-10-16T07:18:51;1.02;;;0.47;;
37389;SDS011;39679;49.000;8.390;2022-10-16T07:23:52;0.60;;;0.60;;
37389;SDS011;39679;49.000;8.390;2022-10-16T07:28:53;0.88;;;0.50;;
37389;SDS011;39679;49.000;8.390;2022-10-16T07:33:53;0.50;;;0.50;;
37389;SDS011;39679;49.000;8.390;2022-10-16T07:38:54;0.60;;;0.60;;
37389;SDS011;39679;49.000;8.390;2022-10-16T07:43:54;0.57;;;0.40;;
37389;SDS011;39679;49.000;8.390;2022-10-16T07:48:55;0.93;;;0.60;;
37389;SDS011;39679;49.000;8.390;2022-10-16T07:53:56;0.60;;;0.60;;
37389;SDS011;39679;49.000;8.390;2022-10-16T07:58:56;1.50;;;0.65;;
37389;SDS011;39679;49.000;8.390;2022-10-16T08:03:56;0.70;;;0.70;;
37389;SDS011;39679;49.000;8.390;2022-10-16T08:08:57;0.35;;;0.35;;
37389;SDS011;39679;49.000;8.390;2022-10-16T08:13:57;1.50;;;0.60;;
37389;SDS011;39679;49.000;8.390;2022-10-16T08:18:57;0.80;;;0.80;;
37389;SDS011;39679;49.000;8.390;2022-10-16T08:23:58;0.52;;;0.52;;
37389;SDS011;39679;49.000;8.390;2022-10-16T08:28:58;0.60;;;0.60;;
37389;SDS011;39679;49.000;8.390;2022-10-16T08:33:58;1.15;;;0.70;;
37389;SDS011;39679;49.000;8.390;2022-10-16T08:38:59;0.60;;;0.60;;
37389;SDS011;39679;49.000;8.390;2022-10-16T08:49:19;0.45;;;0.45;;
37389;SDS011;39679;49.000;8.390;2022-10-16T08:59:28;0.68;;;0.63;;
37389;SDS011;39679;49.000;8.390;2022-10-16T09:04:44;0.40;;;0.40;;
37389;SDS011;39679;49.000;8.390;2022-10-16T09:20:49;0.68;;;0.52;;
37389;SDS011;39679;49.000;8.390;2022-10-16T09:26:09;0.50;;;0.50;;
37389;SDS011;39679;49.000;8.390;2022-10-16T09:36:17;0.75;;;0.60;;
37389;SDS011;39679;49.000;8.390;2022-10-16T09:41:20;1.65;;;0.70;;
37389;SDS011;39679;49.000;8.390;2022-10-16T09:51:29;1.50;;;0.68;;
37389;SDS011;39679;49.000;8.390;2022-10-16T09:56:34;1.42;;;1.02;;
37389;SDS011;39679;49.000;8.390;2022-10-16T10:01:36;2.58;;;0.85;;
37389;SDS011;39679;49.000;8.390;2022-10-16T10:06:48;2.22;;;0.82;;
37389;SDS011;39679;49.000;8.390;2022-10-16T10:33:24;11.32;;;3.75;;
37389;SDS011;39679;49.000;8.390;2022-10-16T10:38:51;15.20;;;5.63;;
37389;SDS011;39679;49.000;8.390;2022-10-16T10:55:13;13.73;;;3.90;;
37389;SDS011;39679;49.000;8.390;2022-10-16T11:00:28;14.25;;;4.50;;
37389;SDS011;39679;49.000;8.390;2022-10-16T11:05:40;14.65;;;4.22;;
37389;SDS011;39679;49.000;8.390;2022-10-16T11:10:45;14.00;;;4.10;;
37389;SDS011;39679;49.000;8.390;2022-10-16T11:15:52;12.48;;;3.53;;
37389;SDS011;39679;49.000;8.390;2022-10-16T11:26:08;11.68;;;3.05;;
37389;SDS011;39679;49.000;8.390;2022-10-16T11:46:58;12.65;;;2.53;;
37389;SDS011;39679;49.000;8.390;2022-10-16T11:52:10;12.15;;;3.00;;
37389;SDS011;39679;49.000;8.390;2022-10-16T11:57:33;8.82;;;2.70;;
37389;SDS011;39679;49.000;8.390;2022-10-16T12:08:11;8.07;;;2.45;;
37389;SDS011;39679;49.000;8.390;2022-10-16T12:18:37;5.65;;;1.98;;
37389;SDS011;39679;49.000;8.390;2022-10-16T12:23:46;5.00;;;1.70;;
37389;SDS011;39679;49.000;8.390;2022-10-16T12:28:48;3.97;;;1.70;;
37389;SDS011;39679;49.000;8.390;2022-10-16T12:33:58;3.00;;;1.52;;
37389;SDS011;39679;49.000;8.390;2022-10-16T12:39:02;4.93;;;1.60;;
37389;SDS011;39679;49.000;8.390;2022-10-16T12:44:03;5.53;;;1.67;;
37389;SDS011;39679;49.000;8.390;2022-10-16T12:49:48;5.57;;;1.90;;
37389;SDS011;39679;49.000;8.390;2022-10-16T12:54:35;3.30;;;1.90;;
37389;SDS011;39679;49.000;8.390;2022-10-16T12:59:46;5.15;;;1.40;;
37389;SDS011;39679;49.000;8.390;2022-10-16T13:10:25;5.40;;;1.33;;
37389;SDS011;39679;49.000;8.390;2022-10-16T13:21:17;2.05;;;1.23;;
37389;SDS011;39679;49.000;8.390;2022-10-16T13:31:39;4.70;;;1.60;;
37389;SDS011;39679;49.000;8.390;2022-10-16T13:36:47;3.70;;;1.70;;
37389;SDS011;39679;49.000;8.390;2022-10-16T13:52:17;4.95;;;1.77;;
37389;SDS011;39679;49.000;8.390;2022-10-16T13:57:21;4.13;;;1.35;;
37389;SDS011;39679;49.000;8.390;2022-10-16T14:02:27;3.03;;;1.40;;
37389;SDS011;39679;49.000;8.390;2022-10-16T14:07:33;3.67;;;1.65;;
37389;SDS011;39679;49.000;8.390;2022-10-16T14:12:35;3.90;;;1.80;;
37389;SDS011;39679;49.000;8.390;2022-10-16T14:17:35;4.90;;;1.83;;
37389;SDS011;39679;49.000;8.390;2022-10-16T14:22:37;8.45;;;2.72;;
37389;SDS011;39679;49.000;8.390;2022-10-16T14:27:39;5.68;;;2.58;;
37389;SDS011;39679;49.000;8.390;2022-10-16T14:32:40;5.97;;;2.33;;
37389;SDS011;39679;49.000;8.390;2022-10-16T14:37:42;6.95;;;2.55;;
37389;SDS011;39679;49.000;8.390;2022-10-16T14:42:43;6.40;;;2.28;;
37389;SDS011;39679;49.000;8.390;2022-10-16T14:47:58;6.93;;;2.80;;
37389;SDS011;39679;49.000;8.390;2022-10-16T14:53:01;6.38;;;2.80;;
37389;SDS011;39679;49.000;8.390;2022-10-16T14:58:02;6.57;;;2.50;;
37389;SDS011;39679;49.000;8.390;2022-10-16T15:03:02;4.93;;;2.10;;
37389;SDS011;39679;49.000;8.390;2022-10-16T15:08:02;5.85;;;2.35;;
37389;SDS011;39679;49.000;8.390;2022-10-16T15:13:03;4.80;;;2.13;;
37389;SDS011;39679;49.000;8.390;2022-10-16T15:18:03;5.40;;;2.25;;
37389;SDS011;39679;49.000;8.390;2022-10-16T15:23:14;8.82;;;2.53;;
37389;SDS011;39679;49.000;8.390;2022-10-16T15:28:16;4.72;;;2.40;;
37389;SDS011;39679;49.000;8.390;2022-10-16T15:33:19;4.97;;;2.25;;
37389;SDS011;39679;49.000;8.390;2022-10-16T15:38:22;4.65;;;2.35;;
37389;SDS011;39679;49.000;8.390;2022-10-16T15:43:22;3.95;;;1.90;;
37389;SDS011;39679;49.000;8.390;2022-10-16T15:48:23;5.07;;;2.08;;
37389;SDS011;39679;49.000;8.390;2022-10-16T15:53:23;4.28;;;2.28;;
37389;SDS011;39679;49.000;8.390;2022-10-16T15:58:23;4.45;;;2.25;;
37389;SDS011;39679;49.000;8.390;2022-10-16T16:03:24;5.63;;;2.25;;
37389;SDS011;39679;49.000;8.390;2022-10-16T16:08:24;4.15;;;1.98;;
37389;SDS011;39679;49.000;8.390;2022-10-16T16:13:24;3.58;;;2.00;;
37389;SDS011;39679;49.000;8.390;2022-10-16T16:18:25;4.03;;;1.70;;
37389;SDS011;39679;49.000;8.390;2022-10-16T16:23:26;4.45;;;2.00;;
37389;SDS011;39679;49.000;8.390;2022-10-16T16:28:26;4.00;;;2.10;;
37389;SDS011;39679;49.000;8.390;2022-10-16T16:33:26;3.55;;;1.88;;
37389;SDS011;39679;49.000;8.390;2022-10-16T16:38:27;3.85;;;1.90;;
37389;SDS011;39679;49.000;8.390;2022-10-16T16:43:27;3.53;;;1.92;;
37389;SDS011;39679;49.000;8.390;2022-10-16T16:48:28;4.15;;;2.17;;
37389;SDS011;39679;49.000;8.390;2022-10-16T16:53:28;4.28;;;2.00;;
37389;SDS011;39679;49.000;8.390;2022-10-16T16:58:28;7.40;;;2.20;;
37389;SDS011;39679;49.000;8.390;2022-10-16T17:03:29;3.55;;;1.90;;
37389;SDS011;39679;49.000;8.390;2022-10-16T17:08:32;2.60;;;1.70;;
37389;SDS011;39679;49.000;8.390;2022-10-16T17:13:34;3.15;;;1.85;;
37389;SDS011;39679;49.000;8.390;2022-10-16T17:18:34;3.25;;;1.50;;
37389;SDS011;39679;49.000;8.390;2022-10-16T17:23:36;4.43;;;1.80;;
37389;SDS011;39679;49.000;8.390;2022-10-16T17:28:37;4.57;;;2.15;;
37389;SDS011;39679;49.000;8.390;2022-10-16T17:33:38;2.70;;;1.73;;
37389;SDS011;39679;49.000;8.390;2022-10-16T17:38:38;2.72;;;1.70;;
37389;SDS011;39679;49.000;8.390;2022-10-16T17:43:41;4.50;;;1.75;;
37389;SDS011;39679;49.000;8.390;2022-10-16T17:48:43;2.75;;;1.80;;
37389;SDS011;39679;49.000;8.390;2022-10-16T17:53:48;4.15;;;1.98;;
37389;SDS011;39679;49.000;8.390;2022-10-16T17:58:50;2.70;;;2.05;;
37389;SDS011;39679;49.000;8.390;2022-10-16T18:03:54;4.35;;;1.88;;
37389;SDS011;39679;49.000;8.390;2022-10-16T18:08:56;1.92;;;1.60;;
37389;SDS011;39679;49.000;8.390;2022-10-16T18:13:58;1.98;;;1.42;;
37389;SDS011;39679;49.000;8.390;2022-10-16T18:18:59;2.05;;;1.50;;
37389;SDS011;39679;49.000;8.390;2022-10-16T18:23:59;4.18;;;1.90;;
37389;SDS011;39679;49.000;8.390;2022-10-16T18:29:00;3.10;;;1.67;;
37389;SDS011;39679;49.000;8.390;2022-10-16T18:34:00;2.95;;;1.90;;
37389;SDS011;39679;49.000;8.390;2022-10-16T18:39:02;3.10;;;1.33;;
37389;SDS011;39679;49.000;8.390;2022-10-16T18:44:05;4.82;;;1.77;;
37389;SDS011;39679;49.000;8.390;2022-10-16T18:49:05;3.25;;;2.08;;
37389;SDS011;39679;49.000;8.390;2022-10-16T18:54:07;3.85;;;1.77;;
37389;SDS011;39679;49.000;8.390;2022-10-16T18:59:08;2.40;;;1.50;;
37389;SDS011;39679;49.000;8.390;2022-10-16T19:04:10;1.65;;;1.38;;
37389;SDS011;39679;49.000;8.390;2022-10-16T19:09:12;2.30;;;1.58;;
37389;SDS011;39679;49.000;8.390;2022-10-16T19:14:14;2.70;;;1.40;;
37389;SDS011;39679;49.000;8.390;2022-10-16T19:19:16;1.85;;;1.50;;
37389;SDS011;39679;49.000;8.390;2022-10-16T19:24:17;2.95;;;1.60;;
37389;SDS011;39679;49.000;8.390;2022-10-16T19:29:17;1.98;;;1.42;;
37389;SDS011;39679;49.000;8.390;2022-10-16T19:34:18;1.83;;;1.40;;
37389;SDS011;39679;49.000;8.390;2022-10-16T19:39:18;2.88;;;1.70;;
37389;SDS011;39679;49.000;8.390;2022-10-16T19:44:18;5.50;;;1.90;;
37389;SDS011;39679;49.000;8.390;2022-10-16T19:49:19;5.22;;;2.05;;
37389;SDS011;39679;49.000;8.390;2022-10-16T19:54:21;3.83;;;1.98;;
37389;SDS011;39679;49.000;8.390;2022-10-16T19:59:22;4.38;;;1.77;;
37389;SDS011;39679;49.000;8.390;2022-10-16T20:04:22;2.40;;;1.70;;
37389;SDS011;39679;49.000;8.390;2022-10-16T20:09:23;3.03;;;1.73;;
37389;SDS011;39679;49.000;8.390;2022-10-16T20:14:23;2.28;;;1.55;;
37389;SDS011;39679;49.000;8.390;2022-10-16T20:19:23;3.92;;;2.28;;
37389;SDS011;39679;49.000;8.390;2022-10-16T20:24:24;6.45;;;1.65;;
37389;SDS011;39679;49.000;8.390;2022-10-16T20:29:24;3.05;;;1.48;;
37389;SDS011;39679;49.000;8.390;2022-10-16T20:34:24;3.65;;;1.80;;
37389;SDS011;39679;49.000;8.390;2022-10-16T20:39:25;3.20;;;1.95;;
37389;SDS011;39679;49.000;8.390;2022-10-16T20:44:25;2.90;;;1.80;;
37389;SDS011;39679;49.000;8.390;2022-10-16T20:49:26;4.03;;;2.13;;
37389;SDS011;39679;49.000;8.390;2022-10-16T20:54:26;2.10;;;1.58;;
37389;SDS011;39679;49.000;8.390;2022-10-16T20:59:27;3.53;;;1.70;;
37389;SDS011;39679;49.000;8.390;2022-10-16T21:04:27;2.35;;;1.75;;
37389;SDS011;39679;49.000;8.390;2022-10-16T21:09:27;3.00;;;1.90;;
37389;SDS011;39679;49.000;8.390;2022-10-16T21:14:28;3.17;;;1.80;;
37389;SDS011;39679;49.000;8.390;2022-10-16T21:19:28;2.63;;;1.67;;
37389;SDS011;39679;49.000;8.390;2022-10-16T21:24:29;2.85;;;2.05;;
37389;SDS011;39679;49.000;8.390;2022-10-16T21:29:29;2.38;;;1.80;;
37389;SDS011;39679;49.000;8.390;2022-10-16T21:34:30;3.35;;;1.60;;
37389;SDS011;39679;49.000;8.390;2022-10-16T21:39:30;2.73;;;1.57;;
37389;SDS011;39679;49.000;8.390;2022-10-16T21:44:30;3.43;;;2.03;;
37389;SDS011;39679;49.000;8.390;2022-10-16T21:49:31;2.90;;;2.03;;
37389;SDS011;39679;49.000;8.390;2022-10-16T21:54:31;3.05;;;1.75;;
37389;SDS011;39679;49.000;8.390;2022-10-16T21:59:32;4.45;;;1.88;;
37389;SDS011;39679;49.000;8.390;2022-10-16T22:04:32;3.23;;;1.70;;
37389;SDS011;39679;49.000;8.390;2022-10-16T22:09:32;3.22;;;1.95;;
37389;SDS011;39679;49.000;8.390;2022-10-16T22:14:33;2.73;;;1.87;;
37389;SDS011;39679;49.000;8.390;2022-10-16T22:19:33;2.77;;;1.73;;
37389;SDS011;39679;49.000;8.390;2022-10-16T22:24:33;4.37;;;1.90;;
37389;SDS011;39679;49.000;8.390;2022-10-16T22:29:34;2.57;;;1.57;;
37389;SDS011;39679;49.000;8.390;2022-10-16T22:34:34;2.53;;;1.73;;
37389;SDS011;39679;49.000;8.390;2022-10-16T22:39:34;3.38;;;1.80;;
37389;SDS011;39679;49.000;8.390;2022-10-16T22:44:35;4.47;;;2.00;;
37389;SDS011;39679;49.000;8.390;2022-10-16T22:49:35;3.50;;;2.20;;
37389;SDS011;39679;49.000;8.390;2022-10-16T22:54:35;3.15;;;2.05;;
37389;SDS011;39679;49.000;8.390;2022-10-16T22:59:36;5.10;;;2.45;;
37389;SDS011;39679;49.000;8.390;2022-10-16T23:04:36;2.60;;;1.70;;
37389;SDS011;39679;49.000;8.390;2022-10-16T23:09:36;5.18;;;2.30;;
37389;SDS011;39679;49.000;8.390;2022-10-16T23:14:37;2.88;;;1.90;;
37389;SDS011;39679;49.000;8.390;2022-10-16T23:19:37;4.25;;;2.03;;
37389;SDS011;39679;49.000;8.390;2022-10-16T23:24:38;3.10;;;1.92;;
37389;SDS011;39679;49.000;8.390;2022-10-16T23:29:38;3.05;;;1.92;;
37389;SDS011;39679;49.000;8.390;2022-10-16T23:34:38;3.38;;;1.70;;
37389;SDS011;39679;49.000;8.390;2022-10-16T23:39:39;3.38;;;2.08;;
37389;SDS011;39679;49.000;8.390;2022-10-16T23:44:39;3.85;;;2.10;;
37389;SDS011;39679;49.000;8.390;2022-10-16T23:49:39;3.45;;;2.00;;
37389;SDS011;39679;49.000;8.390;2022-10-16T23:54:40;2.95;;;1.67;;
37389;SDS011;39679;49.000;8.390;2022-10-16T23:59:40;3.30;;;1.90;;
